Time;durP1;ratioP1;P1;durP2;ratioP2;P2;SDS_P1;SDS_P2;PMS_P1;PMS_P2;Temp;Humidity;BMP_temperature;BMP_pressure;BME280_temperature;BME280_humidity;BME280_pressure;Samples;Min_cycle;Max_cycle;Signal;HPM_P1;HPM_P2
2022/09/15 00:03:24;;;;;;;1.83;0.98;;;15.70;99.90;;;;;;20875315;28;20064;-37
2022/09/15 00:13:25;;;;;;;1.20;0.40;;;15.60;99.90;;;;;;20862238;28;20255;-37
2022/09/15 00:23:26;;;;;;;1.50;0.90;;;15.50;99.90;;;;;;20860755;28;20551;-38
2022/09/15 00:33:27;;;;;;;1.50;0.52;;;15.30;99.90;;;;;;20857913;28;20408;-37
2022/09/15 00:43:45;;;;;;;1.70;0.65;;;15.10;99.90;;;;;;20858881;28;20037;-37
2022/09/15 00:53:48;;;;;;;1.35;0.30;;;14.90;99.90;;;;;;20849118;28;20848;-37
2022/09/15 01:03:49;;;;;;;1.23;0.43;;;14.70;99.90;;;;;;20833915;28;20091;-37
2022/09/15 01:13:50;;;;;;;1.02;0.45;;;14.60;99.90;;;;;;20832059;28;20514;-37
2022/09/15 01:24:19;;;;;;;1.48;0.47;;;14.60;99.90;;;;;;20836192;28;20036;-37
2022/09/15 01:34:21;;;;;;;1.30;0.52;;;14.80;99.90;;;;;;20832311;28;20136;-37
2022/09/15 01:44:26;;;;;;;3.63;1.08;;;14.90;99.90;;;;;;20834537;28;20215;-37
2022/09/15 01:54:32;;;;;;;1.85;0.80;;;15.00;99.90;;;;;;20833321;28;20099;-37
2022/09/15 02:04:46;;;;;;;1.92;0.82;;;15.00;99.90;;;;;;20836168;28;20134;-38
2022/09/15 02:14:54;;;;;;;2.38;0.80;;;15.00;99.90;;;;;;20841919;28;20174;-38
2022/09/15 02:25:04;;;;;;;1.20;0.70;;;14.90;99.90;;;;;;20838534;28;20859;-38
2022/09/15 02:35:08;;;;;;;1.55;0.50;;;15.00;99.90;;;;;;20845201;28;20656;-38
2022/09/15 02:45:09;;;;;;;0.80;0.25;;;15.00;99.90;;;;;;20846609;28;20439;-37
2022/09/15 02:55:10;;;;;;;1.65;0.60;;;15.00;99.90;;;;;;20843470;28;20131;-37
2022/09/15 03:05:14;;;;;;;1.25;0.60;;;14.90;99.90;;;;;;20821306;28;20152;-37
2022/09/15 03:15:17;;;;;;;0.65;0.22;;;14.90;99.90;;;;;;20849822;28;20041;-37
2022/09/15 03:25:19;;;;;;;1.25;0.40;;;14.90;99.90;;;;;;20858689;28;20103;-37
2022/09/15 03:35:20;;;;;;;0.70;0.35;;;14.90;99.90;;;;;;20848184;28;20500;-37
2022/09/15 03:45:21;;;;;;;0.60;0.43;;;14.90;99.90;;;;;;20845690;28;20405;-37
2022/09/15 03:55:22;;;;;;;1.63;0.57;;;14.90;99.90;;;;;;20849663;28;20551;-37
2022/09/15 04:05:23;;;;;;;1.67;0.40;;;14.80;99.90;;;;;;20850666;28;20047;-38
2022/09/15 04:15:24;;;;;;;2.10;0.60;;;14.90;99.90;;;;;;20825243;28;20048;-37
2022/09/15 04:25:26;;;;;;;1.13;0.45;;;14.90;99.90;;;;;;20854039;28;20529;-37
2022/09/15 04:35:29;;;;;;;0.65;0.20;;;15.00;99.90;;;;;;20856152;28;20064;-37
2022/09/15 04:45:32;;;;;;;1.13;0.20;;;14.90;99.90;;;;;;20841864;28;20037;-37
2022/09/15 04:55:33;;;;;;;0.93;0.52;;;15.00;99.90;;;;;;20858977;28;20134;-37
2022/09/15 05:05:34;;;;;;;0.88;0.35;;;14.90;99.90;;;;;;20850168;28;20146;-37
2022/09/15 05:15:35;;;;;;;0.85;0.40;;;14.90;99.90;;;;;;20857520;28;20523;-37
2022/09/15 05:25:37;;;;;;;0.77;0.20;;;14.90;99.90;;;;;;20852892;28;20550;-38
2022/09/15 05:35:38;;;;;;;1.00;0.22;;;14.80;99.90;;;;;;20854069;28;20187;-37
2022/09/15 05:45:42;;;;;;;1.25;0.25;;;14.80;99.90;;;;;;20852732;28;20064;-37
2022/09/15 05:55:43;;;;;;;1.25;0.25;;;14.80;99.90;;;;;;20851050;28;20325;-38
2022/09/15 06:05:44;;;;;;;1.58;0.50;;;14.90;99.90;;;;;;20861518;28;20037;-37
2022/09/15 06:15:46;;;;;;;0.60;0.20;;;15.10;99.90;;;;;;20872066;28;20036;-37
2022/09/15 06:25:47;;;;;;;0.60;0.20;;;15.20;99.90;;;;;;20864040;28;20471;-37
2022/09/15 06:35:47;;;;;;;0.80;0.20;;;15.20;99.90;;;;;;20860110;28;20041;-37
2022/09/15 06:45:49;;;;;;;1.65;0.75;;;15.40;99.90;;;;;;20857049;28;20033;-37
2022/09/15 06:55:50;;;;;;;1.15;0.30;;;15.60;99.90;;;;;;20858544;28;20044;-37
2022/09/15 07:05:50;;;;;;;3.72;1.70;;;15.90;99.90;;;;;;20871540;28;20078;-37
2022/09/15 07:15:57;;;;;;;1.58;0.30;;;16.10;99.90;;;;;;20883136;28;20045;-37
2022/09/15 07:26:23;;;;;;;2.92;0.45;;;16.00;99.90;;;;;;20873769;28;20118;-37
2022/09/15 07:36:24;;;;;;;0.55;0.28;;;15.90;99.90;;;;;;20877349;28;20079;-37
2022/09/15 07:46:28;;;;;;;1.13;0.28;;;16.00;99.90;;;;;;20875947;28;20049;-37
2022/09/15 07:56:29;;;;;;;0.68;0.10;;;16.00;99.90;;;;;;20840166;28;20161;-38
2022/09/15 08:06:30;;;;;;;0.40;0.10;;;16.00;99.90;;;;;;20881690;28;20033;-37
2022/09/15 08:16:31;;;;;;;1.02;0.22;;;16.10;99.90;;;;;;20886830;28;20041;-38
2022/09/15 08:26:32;;;;;;;0.98;0.30;;;16.10;99.90;;;;;;20879852;28;20219;-38
2022/09/15 08:36:33;;;;;;;2.50;0.98;;;16.10;99.90;;;;;;20879307;28;20045;-38
2022/09/15 08:46:40;;;;;;;0.68;0.20;;;16.10;99.90;;;;;;20879887;28;20064;-38
2022/09/15 08:56:42;;;;;;;0.50;0.10;;;16.00;99.90;;;;;;20876465;28;20041;-38
2022/09/15 09:06:57;;;;;;;0.82;0.20;;;15.70;99.90;;;;;;20880098;28;20094;-38
2022/09/15 09:17:20;;;;;;;0.73;0.30;;;15.80;99.90;;;;;;20819799;28;20072;-38
2022/09/15 09:27:27;;;;;;;0.63;0.13;;;16.10;99.90;;;;;;20873406;28;20087;-38
2022/09/15 09:37:29;;;;;;;1.00;0.20;;;16.50;99.90;;;;;;20880422;28;20064;-38
2022/09/15 09:47:32;;;;;;;0.88;0.20;;;16.40;99.90;;;;;;20886669;28;20037;-38
2022/09/15 09:57:35;;;;;;;0.70;0.20;;;16.50;99.90;;;;;;20866494;28;20447;-37
2022/09/15 10:07:42;;;;;;;4.20;0.40;;;17.10;99.90;;;;;;20896086;28;20051;-38
2022/09/15 10:17:45;;;;;;;0.57;0.13;;;17.60;99.90;;;;;;20903879;28;20189;-38
2022/09/15 10:28:07;;;;;;;0.98;0.40;;;17.90;99.90;;;;;;20889217;28;20486;-37
2022/09/15 10:38:11;;;;;;;2.20;1.05;;;18.30;99.90;;;;;;20882579;28;20561;-37
2022/09/15 10:48:18;;;;;;;1.42;0.20;;;18.50;99.90;;;;;;20879075;28;20095;-37
2022/09/15 10:58:55;;;;;;;0.60;0.20;;;18.70;99.90;;;;;;20867403;28;20037;-37
2022/09/15 11:09:20;;;;;;;1.75;0.20;;;18.70;99.90;;;;;;20861936;28;21892;-37
2022/09/15 11:19:30;;;;;;;0.43;0.10;;;19.70;99.90;;;;;;20858041;28;20433;-37
2022/09/15 11:30:00;;;;;;;0.90;0.20;;;19.40;99.90;;;;;;20876164;28;20536;-38
2022/09/15 11:40:06;;;;;;;0.45;0.10;;;20.30;99.40;;;;;;20880000;28;20807;-38
2022/09/15 11:50:18;;;;;;;0.43;0.10;;;20.80;99.90;;;;;;20861866;28;20040;-38
2022/09/15 12:00:20;;;;;;;0.80;0.25;;;21.40;99.90;;;;;;20868530;28;20033;-38
2022/09/15 12:10:29;;;;;;;0.30;0.10;;;21.70;99.90;;;;;;20876424;28;20500;-38
2022/09/15 12:20:41;;;;;;;0.70;0.10;;;22.10;99.60;;;;;;20894593;28;20546;-38
2022/09/15 12:30:42;;;;;;;2.53;0.15;;;20.90;99.80;;;;;;20885857;28;20829;-38
2022/09/15 12:40:43;;;;;;;0.13;0.10;;;19.50;99.90;;;;;;20890759;28;20052;-38
2022/09/15 12:50:53;;;;;;;1.27;0.28;;;18.80;99.90;;;;;;20889791;28;20037;-38
2022/09/15 13:01:17;;;;;;;1.60;0.98;;;18.40;99.90;;;;;;20880121;28;20044;-38
2022/09/15 13:11:24;;;;;;;0.85;0.25;;;18.10;99.90;;;;;;20878191;28;20049;-38
2022/09/15 13:21:25;;;;;;;3.88;0.22;;;18.10;99.90;;;;;;20882354;28;20102;-38
2022/09/15 13:31:47;;;;;;;0.57;0.20;;;18.40;99.90;;;;;;20878393;28;20130;-38
2022/09/15 13:42:26;;;;;;;1.85;0.80;;;18.30;99.90;;;;;;20843524;28;20338;-38
2022/09/15 13:52:48;;;;;;;0.52;0.10;;;18.80;99.90;;;;;;20804197;28;20516;-38
2022/09/15 14:02:55;;;;;;;1.75;1.00;;;19.00;99.90;;;;;;20867400;28;20342;-38
2022/09/15 14:13:00;;;;;;;0.25;0.03;;;19.20;99.90;;;;;;20875540;28;20732;-38
2022/09/15 14:23:01;;;;;;;1.15;0.30;;;19.60;99.90;;;;;;20873673;28;20044;-38
2022/09/15 14:33:02;;;;;;;0.38;0.10;;;19.10;99.90;;;;;;20865030;28;20052;-38
2022/09/15 14:43:34;;;;;;;0.20;0.10;;;18.90;99.90;;;;;;20866482;28;20557;-38
2022/09/15 14:53:39;;;;;;;6.32;0.40;;;18.30;99.90;;;;;;20863532;28;20674;-38
2022/09/15 15:03:51;;;;;;;0.55;0.15;;;18.00;99.90;;;;;;20864576;28;20094;-38
2022/09/15 15:13:53;;;;;;;0.93;0.28;;;18.00;99.90;;;;;;20858456;28;20937;-38
2022/09/15 15:23:54;;;;;;;0.63;0.13;;;18.40;99.90;;;;;;20842768;28;20064;-38
2022/09/15 15:34:04;;;;;;;0.68;0.43;;;18.10;99.90;;;;;;20867559;28;20535;-38
2022/09/15 15:44:26;;;;;;;0.63;0.10;;;18.00;99.90;;;;;;20890428;28;20036;-38
2022/09/15 15:54:28;;;;;;;0.85;0.15;;;18.00;99.90;;;;;;20905019;28;20045;-38
2022/09/15 16:04:29;;;;;;;0.45;0.15;;;17.90;99.90;;;;;;20874329;28;20060;-38
2022/09/15 16:14:30;;;;;;;0.57;0.20;;;17.80;99.90;;;;;;20879781;28;20032;-38
2022/09/15 16:24:31;;;;;;;0.52;0.10;;;17.60;99.90;;;;;;20890501;28;20048;-38
2022/09/15 16:34:32;;;;;;;7.78;1.48;;;17.40;99.90;;;;;;20879224;28;20511;-38
2022/09/15 16:44:33;;;;;;;3.40;1.50;;;17.00;99.90;;;;;;20860057;28;20393;-39
2022/09/15 16:54:34;;;;;;;0.45;0.15;;;16.60;99.90;;;;;;20877082;28;20509;-38
2022/09/15 17:04:35;;;;;;;9.43;0.30;;;16.50;99.90;;;;;;20874790;28;20037;-38
2022/09/15 17:14:36;;;;;;;0.70;0.20;;;16.50;99.90;;;;;;20870306;28;20040;-38
2022/09/15 17:24:37;;;;;;;1.45;0.22;;;16.40;99.90;;;;;;20866352;28;20040;-38
2022/09/15 17:34:38;;;;;;;0.88;0.10;;;16.20;99.90;;;;;;20858414;28;20044;-38
2022/09/15 17:44:39;;;;;;;0.77;0.20;;;16.00;99.90;;;;;;20870575;28;20047;-38
2022/09/15 17:54:40;;;;;;;0.80;0.45;;;16.00;99.90;;;;;;20871305;28;20060;-38
2022/09/15 18:04:41;;;;;;;0.70;0.20;;;15.40;99.90;;;;;;20874419;28;20033;-38
2022/09/15 18:14:42;;;;;;;3.42;1.33;;;14.20;99.90;;;;;;20859296;28;20765;-37
2022/09/15 18:24:43;;;;;;;0.63;0.20;;;13.70;99.90;;;;;;20854161;28;20041;-38
2022/09/15 18:34:44;;;;;;;1.50;0.70;;;13.50;99.90;;;;;;20854120;28;20048;-38
2022/09/15 18:44:45;;;;;;;0.77;0.30;;;13.40;99.90;;;;;;20846905;28;20065;-37
2022/09/15 18:54:46;;;;;;;2.88;0.28;;;13.40;99.90;;;;;;20868966;28;20122;-37
2022/09/15 19:04:47;;;;;;;1.42;0.68;;;13.50;99.90;;;;;;20872019;28;20535;-37
2022/09/15 19:14:48;;;;;;;0.98;0.20;;;13.50;99.90;;;;;;20848791;28;20524;-38
2022/09/15 19:24:49;;;;;;;0.70;0.50;;;13.50;99.90;;;;;;20868184;28;20488;-37
2022/09/15 19:34:51;;;;;;;0.70;0.20;;;13.60;99.90;;;;;;20871771;28;20532;-38
2022/09/15 19:44:53;;;;;;;2.55;0.28;;;13.50;99.90;;;;;;20873977;28;20084;-38
2022/09/15 19:54:54;;;;;;;1.38;1.02;;;13.30;99.90;;;;;;20874148;28;20225;-38
2022/09/15 20:04:55;;;;;;;0.40;0.10;;;13.30;99.90;;;;;;20872620;28;20130;-38
2022/09/15 20:14:56;;;;;;;3.47;0.30;;;13.20;99.90;;;;;;20878023;28;20556;-38
2022/09/15 20:24:57;;;;;;;0.45;0.20;;;13.30;99.90;;;;;;20866145;28;20117;-38
2022/09/15 20:34:58;;;;;;;0.90;0.20;;;13.30;99.90;;;;;;20854085;28;20492;-40
2022/09/15 20:44:59;;;;;;;0.68;0.15;;;13.20;99.90;;;;;;20852420;28;21928;-38
2022/09/15 20:55:00;;;;;;;0.70;0.20;;;13.20;99.90;;;;;;20840789;28;20041;-39
2022/09/15 21:05:01;;;;;;;1.73;0.32;;;13.20;99.90;;;;;;20870350;28;20029;-38
2022/09/15 21:15:02;;;;;;;1.33;0.40;;;13.00;99.90;;;;;;20857072;28;20166;-38
2022/09/15 21:25:04;;;;;;;2.05;0.52;;;12.80;99.90;;;;;;20845897;28;20867;-39
2022/09/15 21:35:06;;;;;;;0.93;0.30;;;12.60;99.90;;;;;;20853753;28;20128;-38
2022/09/15 21:45:07;;;;;;;0.80;0.40;;;12.70;99.90;;;;;;20839471;28;20119;-38
2022/09/15 21:55:08;;;;;;;1.33;0.47;;;12.50;99.90;;;;;;20841784;28;20549;-38
2022/09/15 22:05:09;;;;;;;1.33;0.30;;;12.50;99.90;;;;;;20834940;28;20135;-39
2022/09/15 22:15:11;;;;;;;2.00;0.30;;;12.20;99.90;;;;;;20841161;28;20618;-38
2022/09/15 22:25:12;;;;;;;0.90;0.20;;;12.10;99.90;;;;;;20841477;28;20178;-38
2022/09/15 22:35:13;;;;;;;1.35;0.35;;;12.20;99.90;;;;;;20834731;28;20096;-38
2022/09/15 22:45:14;;;;;;;0.93;0.38;;;12.30;99.90;;;;;;20844248;28;20147;-38
2022/09/15 22:55:15;;;;;;;2.90;0.95;;;12.20;99.90;;;;;;20839306;28;20182;-38
2022/09/15 23:05:16;;;;;;;1.27;0.32;;;12.10;99.90;;;;;;20831977;28;20135;-38
2022/09/15 23:15:17;;;;;;;0.85;0.10;;;12.30;99.90;;;;;;20843230;28;20139;-38
2022/09/15 23:25:19;;;;;;;0.52;0.10;;;12.30;99.90;;;;;;20838828;28;20175;-37
2022/09/15 23:35:20;;;;;;;1.67;0.28;;;12.40;99.90;;;;;;20848658;28;20449;-38
2022/09/15 23:45:21;;;;;;;1.30;0.40;;;12.40;99.90;;;;;;20842200;28;21120;-38
2022/09/15 23:55:22;;;;;;;0.85;0.20;;;12.50;99.90;;;;;;20836600;28;20036;-38
